Time;durP1;ratioP1;P1;durP2;ratioP2;P2;SDS_P1;SDS_P2;PMS_P1;PMS_P2;Temp;Humidity;BMP_temperature;BMP_pressure;BME280_temperature;BME280_humidity;BME280_pressure;Samples;Min_cycle;Max_cycle;Signal;HPM_P1;HPM_P2
2022/06/07 00:01:13;;;;;;;5.88;5.25;;;18.70;99.90;;;;;;5032719;28;20207;-71
2022/06/07 00:03:39;;;;;;;5.93;5.18;;;18.80;99.90;;;;;;5032507;28;20204;-71
2022/06/07 00:06:05;;;;;;;6.28;5.18;;;18.80;99.90;;;;;;5043070;28;20199;-71
2022/06/07 00:08:31;;;;;;;6.22;4.75;;;18.80;99.90;;;;;;5034070;28;20261;-71
2022/06/07 00:10:57;;;;;;;6.25;4.75;;;18.80;99.90;;;;;;5032244;28;20275;-71
2022/06/07 00:13:23;;;;;;;4.93;4.43;;;18.90;99.90;;;;;;5050518;28;20191;-71
2022/06/07 00:15:48;;;;;;;6.75;4.70;;;18.90;99.90;;;;;;5050159;28;20290;-71
2022/06/07 00:18:14;;;;;;;5.07;4.57;;;18.70;99.90;;;;;;5032090;28;20222;-72
2022/06/07 00:20:42;;;;;;;6.70;4.53;;;18.70;99.90;;;;;;5032020;28;20229;-71
2022/06/07 00:23:12;;;;;;;5.22;4.72;;;18.60;99.90;;;;;;5032205;28;20211;-71
2022/06/07 00:25:39;;;;;;;8.23;5.10;;;18.50;99.90;;;;;;5032027;28;20218;-71
2022/06/07 00:28:05;;;;;;;5.38;4.88;;;18.50;99.90;;;;;;5032488;28;20183;-71
2022/06/07 00:30:31;;;;;;;5.70;5.10;;;18.50;99.90;;;;;;5050068;28;20207;-72
2022/06/07 00:32:58;;;;;;;5.80;4.93;;;18.50;99.90;;;;;;5031929;28;20211;-72
2022/06/07 00:35:24;;;;;;;4.85;4.45;;;18.50;99.90;;;;;;5037010;28;20222;-71
2022/06/07 00:37:51;;;;;;;5.55;4.68;;;18.40;99.90;;;;;;5032457;28;20200;-71
2022/06/07 00:40:17;;;;;;;5.40;4.72;;;18.50;99.90;;;;;;5032578;28;20222;-71
2022/06/07 00:42:43;;;;;;;5.50;4.75;;;18.50;99.90;;;;;;5034517;28;20208;-71
2022/06/07 00:45:14;;;;;;;6.10;4.65;;;18.40;99.90;;;;;;5036182;28;20308;-71
2022/06/07 00:47:40;;;;;;;6.50;4.72;;;18.40;99.90;;;;;;5035995;28;20203;-71
2022/06/07 00:50:35;;;;;;;6.63;5.20;;;18.30;99.90;;;;;;5035994;28;20208;-71
2022/06/07 00:53:01;;;;;;;6.82;5.32;;;18.30;99.90;;;;;;5053615;28;20255;-71
2022/06/07 00:55:27;;;;;;;5.57;5.00;;;18.20;99.90;;;;;;5063417;28;20262;-72
2022/06/07 00:57:53;;;;;;;5.47;4.93;;;18.20;99.90;;;;;;5055626;28;20294;-71
2022/06/07 01:00:25;;;;;;;5.82;4.90;;;18.10;99.90;;;;;;5055458;28;20309;-71
2022/06/07 01:02:52;;;;;;;6.70;5.40;;;18.20;99.90;;;;;;5056279;28;20219;-71
2022/06/07 01:05:18;;;;;;;6.55;4.72;;;18.20;99.90;;;;;;5043528;28;20693;-72
2022/06/07 01:10:46;;;;;;;9.40;5.22;;;18.10;99.90;;;;;;5053937;28;20177;-72
2022/06/07 01:13:15;;;;;;;5.15;4.47;;;18.20;99.90;;;;;;5035806;28;20214;-72
2022/06/07 01:15:45;;;;;;;5.68;4.75;;;18.30;99.90;;;;;;5035166;28;20211;-72
2022/06/07 01:18:12;;;;;;;6.22;5.35;;;18.30;99.90;;;;;;5053018;28;20199;-71
2022/06/07 01:20:38;;;;;;;6.20;5.22;;;18.30;99.90;;;;;;5035092;28;20585;-71
2022/06/07 01:23:03;;;;;;;6.88;4.65;;;18.20;99.90;;;;;;5036351;28;20208;-71
2022/06/07 01:25:29;;;;;;;6.97;6.15;;;18.20;99.90;;;;;;5045706;28;20194;-71
2022/06/07 01:27:55;;;;;;;5.53;5.03;;;18.10;99.90;;;;;;5052221;28;20204;-71
2022/06/07 01:30:21;;;;;;;5.05;4.32;;;18.10;99.90;;;;;;5069570;28;20250;-73
2022/06/07 01:32:47;;;;;;;5.18;4.68;;;18.10;99.90;;;;;;5038917;28;20211;-71
2022/06/07 01:35:12;;;;;;;5.63;5.10;;;18.10;99.90;;;;;;5055168;28;20206;-71
2022/06/07 01:37:38;;;;;;;6.20;5.28;;;18.20;99.90;;;;;;5055116;28;20567;-71
2022/06/07 01:42:50;;;;;;;5.70;4.93;;;18.10;99.90;;;;;;5073056;28;20252;-71
2022/06/07 01:45:15;;;;;;;6.43;5.15;;;18.20;99.90;;;;;;5054922;28;20577;-71
2022/06/07 01:47:41;;;;;;;5.43;4.93;;;18.20;99.90;;;;;;5054613;28;20207;-69
2022/06/07 01:50:08;;;;;;;6.70;5.47;;;18.20;99.90;;;;;;5072829;28;20222;-71
2022/06/07 01:52:36;;;;;;;9.13;5.40;;;18.20;99.90;;;;;;5073168;28;20230;-71
2022/06/07 01:55:03;;;;;;;7.20;5.55;;;18.20;99.90;;;;;;5048284;28;20273;-71
2022/06/07 01:57:29;;;;;;;6.82;5.22;;;18.20;99.90;;;;;;5052213;28;20234;-71
2022/06/07 01:59:55;;;;;;;10.38;7.50;;;18.00;99.90;;;;;;5072521;28;20217;-71
2022/06/07 02:02:24;;;;;;;6.35;5.25;;;18.00;99.90;;;;;;5082215;23;20262;-69
2022/06/07 02:04:50;;;;;;;5.82;5.22;;;18.00;99.90;;;;;;5085345;28;20761;-69
2022/06/07 02:07:16;;;;;;;5.65;5.05;;;17.90;99.90;;;;;;5087988;28;20690;-70
2022/06/07 02:09:42;;;;;;;6.03;5.45;;;17.80;99.90;;;;;;5072694;28;20214;-70
2022/06/07 02:12:08;;;;;;;5.65;5.13;;;17.90;99.90;;;;;;5063366;28;20227;-70
2022/06/07 02:14:34;;;;;;;6.65;5.47;;;18.00;99.90;;;;;;5052422;28;20214;-69
2022/06/07 02:17:00;;;;;;;6.22;4.80;;;17.90;99.90;;;;;;5051529;28;20250;-68
2022/06/07 02:19:25;;;;;;;5.97;5.07;;;17.90;99.90;;;;;;5051511;28;20221;-69
2022/06/07 02:21:51;;;;;;;6.65;5.05;;;17.80;99.90;;;;;;5052792;28;20218;-69
2022/06/07 02:24:16;;;;;;;6.63;5.40;;;17.80;99.90;;;;;;5051078;28;20195;-68
2022/06/07 02:26:56;;;;;;;5.60;4.97;;;17.70;99.90;;;;;;5060686;28;20613;-68
2022/06/07 02:29:30;;;;;;;6.30;5.60;;;17.80;99.90;;;;;;5060157;28;20718;-70
2022/06/07 02:32:04;;;;;;;10.50;8.38;;;17.80;99.90;;;;;;5063913;28;20225;-70
2022/06/07 02:34:30;;;;;;;7.07;5.20;;;17.90;99.90;;;;;;5062634;28;20631;-69
2022/06/07 02:36:59;;;;;;;7.25;5.10;;;17.90;99.90;;;;;;5060442;28;20299;-70
2022/06/07 02:39:25;;;;;;;6.55;5.28;;;17.90;99.90;;;;;;5060388;28;20200;-70
2022/06/07 02:41:53;;;;;;;6.10;3.97;;;17.90;99.90;;;;;;5050571;28;20211;-70
2022/06/07 02:44:19;;;;;;;5.40;4.90;;;17.90;99.90;;;;;;5051804;28;20676;-70
2022/06/07 02:46:45;;;;;;;5.57;4.93;;;17.80;99.90;;;;;;5051568;28;20187;-68
2022/06/07 02:49:10;;;;;;;5.18;4.50;;;17.80;99.90;;;;;;5052073;28;20172;-71
2022/06/07 02:51:36;;;;;;;6.75;4.88;;;17.80;99.90;;;;;;5051451;28;20234;-70
2022/06/07 02:54:02;;;;;;;5.20;4.65;;;17.80;99.90;;;;;;5050379;28;20240;-70
2022/06/07 02:56:28;;;;;;;5.75;5.18;;;17.70;99.90;;;;;;5051357;28;20683;-70
2022/06/07 02:58:53;;;;;;;7.07;5.35;;;17.70;99.90;;;;;;5050105;28;20179;-69
2022/06/07 03:01:19;;;;;;;5.22;4.45;;;17.60;99.90;;;;;;5050405;28;20200;-70
2022/06/07 03:03:44;;;;;;;4.57;4.13;;;17.80;99.90;;;;;;5051149;28;20742;-70
2022/06/07 03:06:10;;;;;;;4.55;4.15;;;17.80;99.90;;;;;;5049652;28;20291;-70
2022/06/07 03:08:36;;;;;;;4.70;4.00;;;17.80;99.90;;;;;;5053290;28;20296;-69
2022/06/07 03:11:02;;;;;;;5.70;4.25;;;17.90;99.90;;;;;;5051536;28;20684;-70
2022/06/07 03:13:28;;;;;;;4.22;3.78;;;17.90;99.90;;;;;;5050232;28;20195;-70
2022/06/07 03:15:54;;;;;;;4.60;3.30;;;17.90;99.90;;;;;;5051327;28;20206;-69
2022/06/07 03:18:20;;;;;;;4.68;3.33;;;17.90;99.90;;;;;;5049524;28;20208;-70
2022/06/07 03:20:46;;;;;;;4.07;3.33;;;17.90;99.90;;;;;;5049566;28;20254;-70
2022/06/07 03:23:12;;;;;;;5.03;4.07;;;18.10;99.90;;;;;;5050976;28;20223;-70
2022/06/07 03:25:37;;;;;;;4.68;3.63;;;18.20;99.90;;;;;;5050949;28;20203;-70
2022/06/07 03:28:03;;;;;;;3.60;3.30;;;18.20;99.90;;;;;;5050095;28;20186;-70
2022/06/07 03:30:29;;;;;;;6.70;4.18;;;18.30;99.90;;;;;;5050800;28;20232;-70
2022/06/07 03:32:55;;;;;;;3.83;3.20;;;18.60;99.90;;;;;;5054965;28;20301;-71
2022/06/07 03:35:20;;;;;;;5.45;3.30;;;19.10;99.90;;;;;;5063322;28;20211;-70
2022/06/07 03:37:46;;;;;;;3.17;2.85;;;20.20;99.90;;;;;;5070165;28;20172;-70
2022/06/07 03:40:14;;;;;;;3.60;3.05;;;20.70;99.90;;;;;;5075666;28;20791;-70
2022/06/07 03:42:40;;;;;;;5.47;2.90;;;20.40;99.90;;;;;;5061698;28;20647;-70
2022/06/07 03:45:06;;;;;;;3.72;2.85;;;20.10;99.90;;;;;;5061265;28;20252;-69
2022/06/07 03:47:34;;;;;;;3.88;3.08;;;19.80;99.90;;;;;;5059476;28;20211;-70
2022/06/07 03:49:59;;;;;;;5.05;3.50;;;19.50;99.90;;;;;;5064505;28;20241;-70
2022/06/07 03:52:25;;;;;;;3.78;3.22;;;19.20;99.90;;;;;;5053452;28;20219;-70
2022/06/07 03:54:51;;;;;;;4.05;3.65;;;19.00;99.90;;;;;;5050599;28;20754;-70
2022/06/07 03:57:16;;;;;;;5.35;4.07;;;20.60;99.90;;;;;;5049393;28;20211;-70
2022/06/07 03:59:43;;;;;;;5.00;4.50;;;21.80;99.90;;;;;;5048785;28;20238;-69
2022/06/07 04:02:09;;;;;;;4.10;2.95;;;23.80;99.90;;;;;;5050227;28;20219;-69
2022/06/07 04:04:35;;;;;;;3.45;2.80;;;23.60;99.90;;;;;;5050876;28;20176;-70
2022/06/07 04:09:46;;;;;;;4.10;3.00;;;23.30;99.90;;;;;;5058443;28;20214;-70
2022/06/07 04:12:14;;;;;;;4.22;2.60;;;24.10;99.90;;;;;;5058728;28;20219;-70
2022/06/07 04:14:41;;;;;;;3.13;2.65;;;24.30;99.90;;;;;;5059933;28;20215;-70
2022/06/07 04:17:08;;;;;;;4.47;3.08;;;25.10;99.90;;;;;;5063779;28;20592;-70
2022/06/07 04:19:34;;;;;;;3.33;2.55;;;26.40;99.90;;;;;;5064127;28;20525;-70
2022/06/07 04:22:01;;;;;;;5.50;4.28;;;27.40;99.90;;;;;;5062794;28;20229;-70
2022/06/07 04:24:27;;;;;;;5.50;4.05;;;28.00;99.90;;;;;;5063916;28;20238;-70
2022/06/07 04:26:52;;;;;;;6.47;5.70;;;28.30;99.90;;;;;;5073228;28;20229;-69
2022/06/07 04:29:18;;;;;;;3.58;2.50;;;28.70;99.90;;;;;;5074145;28;20554;-69
2022/06/07 04:31:44;;;;;;;2.60;2.40;;;29.10;99.90;;;;;;5053243;28;20207;-71
2022/06/07 04:34:09;;;;;;;2.67;2.30;;;29.90;99.90;;;;;;5054890;28;20180;-70
2022/06/07 04:36:36;;;;;;;3.42;3.10;;;30.00;99.90;;;;;;5052807;28;20293;-70
2022/06/07 04:39:03;;;;;;;9.55;8.57;;;30.20;99.90;;;;;;5054286;28;20240;-70
2022/06/07 04:41:29;;;;;;;3.60;3.05;;;30.40;99.90;;;;;;5052678;28;20254;-71
2022/06/07 04:43:55;;;;;;;3.03;2.65;;;29.90;99.90;;;;;;5054182;28;20218;-70
2022/06/07 04:46:22;;;;;;;3.35;2.28;;;30.50;99.90;;;;;;5053139;28;20176;-71
2022/06/07 04:48:48;;;;;;;3.10;2.20;;;30.90;99.90;;;;;;5052222;28;20204;-71
2022/06/07 04:51:17;;;;;;;4.18;2.08;;;30.40;99.90;;;;;;5053959;28;20195;-70
2022/06/07 04:53:43;;;;;;;6.20;3.65;;;28.40;99.90;;;;;;5052477;28;20199;-70
2022/06/07 04:56:17;;;;;;;3.45;3.03;;;29.90;99.90;;;;;;5069647;28;20236;-71
2022/06/07 04:58:44;;;;;;;3.95;2.60;;;30.30;99.90;;;;;;5072276;28;20171;-70
2022/06/07 05:01:12;;;;;;;4.75;4.35;;;30.80;99.90;;;;;;5074741;28;20655;-70
2022/06/07 05:03:38;;;;;;;5.47;2.60;;;31.00;99.90;;;;;;5072056;28;20211;-70
2022/06/07 05:06:13;;;;;;;4.00;2.63;;;31.60;99.90;;;;;;5073890;28;20202;-70
2022/06/07 05:08:39;;;;;;;3.13;2.10;;;29.70;99.90;;;;;;5073613;28;20241;-70
2022/06/07 05:11:07;;;;;;;3.65;2.10;;;29.20;99.90;;;;;;5072467;28;20293;-71
2022/06/07 05:13:33;;;;;;;2.10;1.90;;;29.70;99.90;;;;;;5073931;28;20655;-70
2022/06/07 05:15:58;;;;;;;2.13;1.85;;;28.50;99.90;;;;;;5073779;28;20214;-70
2022/06/07 05:18:24;;;;;;;2.42;2.00;;;27.10;99.90;;;;;;5072005;28;20194;-70
2022/06/07 05:20:50;;;;;;;2.05;1.73;;;26.90;99.90;;;;;;5073358;28;20250;-70
2022/06/07 05:23:16;;;;;;;1.95;1.58;;;27.80;99.90;;;;;;5072138;28;20619;-70
2022/06/07 05:25:56;;;;;;;4.07;2.15;;;29.50;99.90;;;;;;5071455;28;20637;-70
2022/06/07 05:28:22;;;;;;;4.68;2.67;;;30.10;99.90;;;;;;5072699;28;20166;-71
2022/06/07 05:30:48;;;;;;;3.70;2.22;;;30.80;99.90;;;;;;5072006;28;20195;-70
2022/06/07 05:33:13;;;;;;;4.95;4.13;;;31.10;99.60;;;;;;5071890;28;20237;-70
2022/06/07 05:35:39;;;;;;;4.78;2.45;;;31.80;97.80;;;;;;5073059;28;20210;-70
2022/06/07 05:38:05;;;;;;;2.08;1.92;;;31.90;97.20;;;;;;5071261;28;20217;-71
2022/06/07 05:40:30;;;;;;;5.32;2.22;;;32.20;96.40;;;;;;5073310;28;20214;-70
2022/06/07 05:42:57;;;;;;;2.00;1.60;;;32.50;94.80;;;;;;5071523;28;20214;-70
2022/06/07 05:45:22;;;;;;;3.28;1.85;;;32.70;94.10;;;;;;5071510;28;20195;-70
2022/06/07 05:47:48;;;;;;;2.60;2.40;;;32.80;93.10;;;;;;5072724;28;20562;-70
2022/06/07 05:50:13;;;;;;;3.33;2.80;;;33.30;92.30;;;;;;5072911;28;20213;-71
2022/06/07 05:52:42;;;;;;;4.00;3.00;;;33.10;91.50;;;;;;5071415;28;20198;-71
2022/06/07 05:55:09;;;;;;;2.55;2.35;;;32.80;91.80;;;;;;5071738;28;20167;-71
2022/06/07 05:57:34;;;;;;;2.40;1.70;;;33.30;90.30;;;;;;5071516;28;20219;-71
2022/06/07 06:00:01;;;;;;;2.10;1.60;;;33.50;87.10;;;;;;5070999;28;20202;-70
2022/06/07 06:02:26;;;;;;;2.60;1.48;;;33.50;88.90;;;;;;5071046;28;20293;-72
2022/06/07 06:04:52;;;;;;;3.35;2.33;;;33.60;86.90;;;;;;5071162;28;20301;-71
2022/06/07 06:07:18;;;;;;;4.35;2.42;;;31.90;89.90;;;;;;5071300;28;20269;-71
2022/06/07 06:12:28;;;;;;;5.72;3.83;;;32.30;87.40;;;;;;5072644;28;20373;-70
2022/06/07 06:14:53;;;;;;;5.15;1.55;;;31.90;87.10;;;;;;5072388;28;20282;-70
2022/06/07 06:17:19;;;;;;;2.22;1.30;;;31.30;88.00;;;;;;5071271;28;20259;-70
2022/06/07 06:19:46;;;;;;;1.30;1.20;;;31.80;87.00;;;;;;5072238;28;20260;-70
2022/06/07 06:22:11;;;;;;;2.50;1.30;;;31.20;86.90;;;;;;5064837;28;20206;-70
2022/06/07 06:24:37;;;;;;;0.98;0.88;;;30.00;89.10;;;;;;5054753;28;20290;-70
2022/06/07 06:27:03;;;;;;;2.75;1.58;;;29.20;91.00;;;;;;5072627;28;20194;-71
2022/06/07 06:29:29;;;;;;;2.63;1.17;;;28.40;92.30;;;;;;5052841;28;20302;-70
2022/06/07 06:31:55;;;;;;;1.40;1.23;;;27.60;92.70;;;;;;5050991;28;20350;-70
2022/06/07 06:34:21;;;;;;;2.05;1.70;;;26.40;94.40;;;;;;5051340;28;20180;-70
2022/06/07 06:36:47;;;;;;;6.93;3.03;;;25.70;96.60;;;;;;5052272;28;20246;-70
2022/06/07 06:39:14;;;;;;;8.90;6.50;;;25.40;98.50;;;;;;5050845;28;20723;-70
2022/06/07 06:41:43;;;;;;;6.97;5.50;;;25.30;98.80;;;;;;5070608;28;20223;-72
2022/06/07 06:44:10;;;;;;;2.33;1.55;;;24.90;99.90;;;;;;5072096;28;20230;-70
2022/06/07 06:46:39;;;;;;;3.70;2.50;;;24.60;99.90;;;;;;5070451;28;20183;-71
2022/06/07 06:49:05;;;;;;;2.90;1.73;;;24.10;99.90;;;;;;5072327;28;20246;-69
2022/06/07 06:51:31;;;;;;;3.95;1.92;;;24.00;99.90;;;;;;5071510;28;20203;-70
2022/06/07 06:53:58;;;;;;;4.18;2.05;;;24.30;99.90;;;;;;5071743;28;20273;-69
2022/06/07 06:56:25;;;;;;;3.60;1.45;;;25.00;99.90;;;;;;5069834;28;20219;-71
2022/06/07 06:58:52;;;;;;;2.92;1.42;;;25.90;99.90;;;;;;5070040;28;20182;-71
2022/06/07 07:01:26;;;;;;;2.28;1.40;;;27.20;99.90;;;;;;5072394;28;20219;-72
2022/06/07 07:03:52;;;;;;;4.10;1.58;;;28.20;98.50;;;;;;5071886;28;20215;-72
2022/06/07 07:06:19;;;;;;;3.13;1.50;;;28.50;96.60;;;;;;5070179;28;20276;-72
2022/06/07 07:08:46;;;;;;;2.78;1.27;;;28.20;95.90;;;;;;5071120;28;20329;-72
2022/06/07 07:11:38;;;;;;;2.58;1.50;;;28.20;96.40;;;;;;5071181;28;20209;-71
2022/06/07 07:14:06;;;;;;;2.97;1.60;;;29.10;96.20;;;;;;5070343;28;20214;-73
2022/06/07 07:16:33;;;;;;;3.25;2.63;;;31.00;94.00;;;;;;5070205;28;20181;-72
2022/06/07 07:19:00;;;;;;;5.57;3.83;;;31.60;91.00;;;;;;5071096;28;20194;-72
2022/06/07 07:21:29;;;;;;;6.38;3.10;;;32.60;88.10;;;;;;5071180;28;20198;-71
2022/06/07 07:23:57;;;;;;;3.65;1.70;;;33.30;85.90;;;;;;5070914;28;20285;-69
2022/06/07 07:26:26;;;;;;;3.17;1.65;;;33.70;82.60;;;;;;5069258;28;20328;-71
2022/06/07 07:28:55;;;;;;;2.25;1.30;;;32.90;83.30;;;;;;5070779;28;20162;-70
2022/06/07 07:31:24;;;;;;;1.33;1.23;;;31.50;83.40;;;;;;5070575;28;20573;-71
2022/06/07 07:33:51;;;;;;;1.35;1.23;;;32.00;84.50;;;;;;5072736;28;20200;-70
2022/06/07 07:36:18;;;;;;;1.38;1.20;;;33.20;81.80;;;;;;5073502;28;20198;-70
2022/06/07 07:38:44;;;;;;;2.00;1.55;;;34.40;79.90;;;;;;5073996;28;20267;-71
2022/06/07 07:41:23;;;;;;;1.67;1.58;;;35.80;76.70;;;;;;5079432;28;20304;-71
2022/06/07 07:43:51;;;;;;;1.73;1.40;;;36.00;74.30;;;;;;5080041;28;20174;-71
2022/06/07 07:46:17;;;;;;;2.10;1.60;;;36.50;72.80;;;;;;5071849;28;20301;-71
2022/06/07 07:48:43;;;;;;;1.52;1.42;;;35.40;70.10;;;;;;5069496;28;20627;-71
2022/06/07 07:51:16;;;;;;;2.55;1.75;;;35.00;71.10;;;;;;5070334;28;20217;-71
2022/06/07 07:53:42;;;;;;;4.13;1.50;;;34.80;70.30;;;;;;5070794;28;20210;-71
2022/06/07 07:56:08;;;;;;;3.63;1.30;;;34.90;71.30;;;;;;5068985;28;20566;-70
2022/06/07 07:58:35;;;;;;;0.90;0.90;;;34.80;71.10;;;;;;5069634;28;20174;-71
2022/06/07 08:01:08;;;;;;;3.67;1.45;;;35.40;70.70;;;;;;5070604;28;20235;-71
2022/06/07 08:03:34;;;;;;;1.42;1.15;;;34.40;69.80;;;;;;5103778;22;20225;-71
2022/06/07 08:06:00;;;;;;;2.53;1.15;;;33.40;72.20;;;;;;5092061;28;20246;-71
2022/06/07 08:08:25;;;;;;;1.40;0.90;;;33.80;72.50;;;;;;5091406;28;20288;-70
2022/06/07 08:10:51;;;;;;;0.80;0.80;;;33.60;71.40;;;;;;5089416;28;20170;-69
2022/06/07 08:13:17;;;;;;;2.70;0.90;;;33.10;71.30;;;;;;5097170;28;20201;-70
2022/06/07 08:15:44;;;;;;;1.80;0.98;;;32.90;73.40;;;;;;5100125;28;20202;-70
2022/06/07 08:18:10;;;;;;;1.30;0.95;;;31.80;73.70;;;;;;5089585;28;20202;-71
2022/06/07 08:20:37;;;;;;;0.82;0.80;;;31.00;76.90;;;;;;5092556;28;20225;-70
2022/06/07 08:23:05;;;;;;;2.85;1.17;;;31.30;76.80;;;;;;5090326;28;20210;-71
2022/06/07 08:25:31;;;;;;;1.67;1.17;;;31.80;77.30;;;;;;5089055;28;20539;-70
2022/06/07 08:27:57;;;;;;;2.03;1.25;;;32.30;76.50;;;;;;5089453;28;20205;-71
2022/06/07 08:30:23;;;;;;;2.72;1.02;;;31.90;77.00;;;;;;5089717;28;20220;-70
2022/06/07 08:32:49;;;;;;;3.42;1.27;;;31.30;77.00;;;;;;5090712;28;20205;-71
2022/06/07 08:38:02;;;;;;;12.05;6.35;;;30.50;78.20;;;;;;5090880;28;20290;-70
2022/06/07 08:40:33;;;;;;;6.00;3.17;;;29.90;79.40;;;;;;5090046;28;20765;-71
2022/06/07 08:43:13;;;;;;;2.40;1.55;;;29.50;80.50;;;;;;5089416;28;20567;-70
2022/06/07 08:45:40;;;;;;;2.13;1.40;;;29.30;80.40;;;;;;5089536;28;20202;-71
2022/06/07 08:48:13;;;;;;;1.92;1.27;;;29.50;81.60;;;;;;5089040;28;20198;-70
2022/06/07 08:50:46;;;;;;;1.20;1.10;;;30.40;80.20;;;;;;5089466;28;20221;-71
2022/06/07 08:53:44;;;;;;;3.67;1.50;;;31.20;79.40;;;;;;5090636;28;20210;-71
2022/06/07 08:56:15;;;;;;;3.63;1.30;;;32.30;76.50;;;;;;5077458;28;20206;-71
2022/06/07 08:58:44;;;;;;;2.30;1.10;;;32.80;74.80;;;;;;5088787;28;20186;-71
2022/06/07 09:01:33;;;;;;;1.50;1.00;;;32.80;74.50;;;;;;5089898;28;20198;-70
2022/06/07 09:04:21;;;;;;;3.55;1.00;;;31.00;75.70;;;;;;5091614;28;20774;-70
2022/06/07 09:06:51;;;;;;;4.22;1.17;;;30.00;77.40;;;;;;5092810;28;20273;-70
2022/06/07 09:09:21;;;;;;;1.92;1.20;;;29.50;79.50;;;;;;5092434;28;20206;-70
2022/06/07 09:12:09;;;;;;;1.27;0.95;;;28.80;81.10;;;;;;5092670;28;20202;-70
2022/06/07 09:14:59;;;;;;;4.88;3.30;;;29.70;82.20;;;;;;5092663;28;20198;-70
2022/06/07 09:17:43;;;;;;;5.53;3.53;;;30.80;80.30;;;;;;5093957;28;20721;-70
2022/06/07 09:20:20;;;;;;;4.93;2.20;;;30.70;79.20;;;;;;5092653;28;20283;-70
2022/06/07 09:22:52;;;;;;;9.27;5.40;;;30.10;79.70;;;;;;5093622;28;20247;-71
2022/06/07 09:25:23;;;;;;;9.30;6.43;;;29.60;81.30;;;;;;5091704;28;20170;-71
2022/06/07 09:27:49;;;;;;;1.92;1.30;;;29.10;83.30;;;;;;5092121;28;20207;-70
2022/06/07 09:30:33;;;;;;;2.97;1.48;;;28.10;84.90;;;;;;5092459;28;20298;-71
2022/06/07 09:33:06;;;;;;;2.20;1.48;;;27.80;86.10;;;;;;5092355;28;20209;-70
2022/06/07 09:35:36;;;;;;;1.98;1.35;;;27.50;87.60;;;;;;5093753;28;20203;-70
2022/06/07 09:38:09;;;;;;;1.80;1.15;;;27.00;89.00;;;;;;5093263;28;20203;-70
2022/06/07 09:40:41;;;;;;;2.22;1.40;;;26.80;89.70;;;;;;5092157;28;20198;-70
2022/06/07 09:43:15;;;;;;;3.53;1.40;;;27.00;90.00;;;;;;5092824;28;20289;-71
2022/06/07 09:45:46;;;;;;;2.80;1.30;;;27.20;90.30;;;;;;5092044;28;20284;-71
2022/06/07 09:48:31;;;;;;;4.57;1.23;;;26.50;90.40;;;;;;5093063;28;20202;-71
2022/06/07 09:51:02;;;;;;;2.00;1.25;;;26.70;90.70;;;;;;5091976;28;20331;-71
2022/06/07 09:53:40;;;;;;;1.40;1.23;;;27.00;90.70;;;;;;5092983;28;20208;-70
2022/06/07 09:56:38;;;;;;;2.50;1.35;;;27.90;90.50;;;;;;5092121;28;20259;-71
2022/06/07 09:59:39;;;;;;;2.05;1.30;;;28.50;88.60;;;;;;5091480;28;20202;-71
2022/06/07 10:02:24;;;;;;;3.35;1.45;;;29.10;87.90;;;;;;5092229;28;20209;-70
2022/06/07 10:05:11;;;;;;;2.88;1.52;;;29.00;88.30;;;;;;5091833;28;20173;-71
2022/06/07 10:07:47;;;;;;;1.92;1.35;;;28.70;87.20;;;;;;5091829;28;20185;-71
2022/06/07 10:10:27;;;;;;;1.95;1.45;;;28.50;87.20;;;;;;5093527;28;20223;-71
2022/06/07 10:13:02;;;;;;;1.63;1.30;;;27.70;89.40;;;;;;5093001;28;20216;-71
2022/06/07 10:15:38;;;;;;;1.83;1.40;;;27.70;89.50;;;;;;5091937;28;20271;-71
2022/06/07 10:18:28;;;;;;;2.55;1.23;;;27.90;89.40;;;;;;5092991;28;20201;-70
2022/06/07 10:20:57;;;;;;;6.55;1.60;;;27.40;89.00;;;;;;5091459;28;20259;-71
2022/06/07 10:23:31;;;;;;;3.67;1.50;;;27.50;90.40;;;;;;5092452;28;20214;-69
2022/06/07 10:26:16;;;;;;;2.75;1.73;;;27.80;90.00;;;;;;5090462;28;20258;-72
2022/06/07 10:28:59;;;;;;;3.28;1.35;;;27.90;89.60;;;;;;5091137;28;20260;-70
2022/06/07 10:31:49;;;;;;;3.35;1.48;;;27.60;89.30;;;;;;5091829;28;20162;-71
2022/06/07 10:34:23;;;;;;;2.05;1.45;;;27.50;90.40;;;;;;5092956;28;20232;-71
2022/06/07 10:36:51;;;;;;;3.72;1.70;;;27.50;90.60;;;;;;5092388;28;20681;-71
2022/06/07 10:39:52;;;;;;;3.20;1.45;;;27.30;90.80;;;;;;5092529;28;20714;-71
2022/06/07 10:42:21;;;;;;;2.95;1.30;;;27.10;91.00;;;;;;5092226;28;20312;-71
2022/06/07 10:44:55;;;;;;;3.13;1.70;;;26.90;91.50;;;;;;5092071;28;20230;-70
2022/06/07 10:47:49;;;;;;;2.50;1.63;;;26.70;91.30;;;;;;5091683;28;20213;-70
2022/06/07 10:50:20;;;;;;;1.23;1.13;;;26.50;91.40;;;;;;5091803;28;20263;-71
2022/06/07 10:52:59;;;;;;;2.38;1.30;;;26.30;91.30;;;;;;5076494;28;20206;-71
2022/06/07 10:55:52;;;;;;;4.03;1.40;;;26.10;91.00;;;;;;5092280;28;20291;-71
2022/06/07 10:58:40;;;;;;;2.33;1.30;;;25.70;91.40;;;;;;5092151;28;20682;-70
2022/06/07 11:01:19;;;;;;;2.80;1.52;;;25.90;92.10;;;;;;5091585;28;20206;-71
2022/06/07 11:03:56;;;;;;;2.03;1.50;;;26.10;91.70;;;;;;5092229;28;20214;-70
2022/06/07 11:09:35;;;;;;;2.13;1.05;;;26.30;90.80;;;;;;5091376;28;20655;-70
2022/06/07 11:12:08;;;;;;;3.13;1.50;;;25.90;89.10;;;;;;5089989;28;20201;-71
2022/06/07 11:14:44;;;;;;;1.70;1.27;;;25.80;90.30;;;;;;5090235;28;20202;-71
2022/06/07 11:17:31;;;;;;;1.15;1.08;;;25.80;90.50;;;;;;5090048;28;20205;-71
2022/06/07 11:20:01;;;;;;;3.20;1.10;;;25.90;90.70;;;;;;5091779;28;20606;-71
2022/06/07 11:22:34;;;;;;;2.70;0.95;;;25.70;90.90;;;;;;5090484;28;20198;-70
2022/06/07 11:25:25;;;;;;;2.22;1.00;;;26.00;91.10;;;;;;5088731;28;20206;-71
2022/06/07 11:27:55;;;;;;;1.65;0.80;;;25.90;90.60;;;;;;5090220;28;20571;-71
2022/06/07 11:30:43;;;;;;;1.58;1.10;;;25.50;90.50;;;;;;5091289;28;20197;-69
2022/06/07 11:33:30;;;;;;;2.90;1.15;;;25.30;90.60;;;;;;5091536;28;20702;-71
2022/06/07 11:36:13;;;;;;;3.85;2.58;;;25.50;91.10;;;;;;5089918;28;20202;-71
2022/06/07 11:38:57;;;;;;;3.78;1.10;;;25.70;91.60;;;;;;5089595;28;20198;-71
2022/06/07 11:41:37;;;;;;;2.97;0.90;;;25.60;90.20;;;;;;5091088;28;20267;-71
2022/06/07 11:44:12;;;;;;;1.95;1.15;;;25.70;91.00;;;;;;5089767;28;20210;-71
2022/06/07 11:46:46;;;;;;;2.33;1.40;;;25.70;90.80;;;;;;5090885;28;20661;-70
2022/06/07 11:49:20;;;;;;;4.25;1.30;;;25.60;90.60;;;;;;5089797;28;20165;-70
2022/06/07 11:52:00;;;;;;;2.42;1.30;;;25.20;91.10;;;;;;5089690;28;20198;-71
2022/06/07 11:54:40;;;;;;;4.13;1.38;;;25.20;91.50;;;;;;5088243;28;20226;-70
2022/06/07 11:57:25;;;;;;;2.70;1.52;;;25.10;91.70;;;;;;5091305;28;20197;-70
2022/06/07 11:59:53;;;;;;;2.58;1.30;;;25.30;91.00;;;;;;5090637;28;20212;-71
2022/06/07 12:02:25;;;;;;;2.90;1.48;;;25.50;91.10;;;;;;5089486;28;20225;-71
2022/06/07 12:05:03;;;;;;;2.50;1.27;;;25.80;91.10;;;;;;5089702;28;20273;-72
2022/06/07 12:07:43;;;;;;;5.80;1.33;;;25.70;90.90;;;;;;5090228;28;20178;-71
2022/06/07 12:10:17;;;;;;;4.03;1.35;;;25.90;91.10;;;;;;5091164;28;20286;-71
2022/06/07 12:12:59;;;;;;;4.47;1.25;;;25.90;90.80;;;;;;5090334;28;20213;-72
2022/06/07 12:15:52;;;;;;;1.95;1.10;;;26.20;90.90;;;;;;5089320;28;20202;-70
2022/06/07 12:18:19;;;;;;;1.10;1.00;;;25.70;90.00;;;;;;5090739;28;20611;-70
2022/06/07 12:21:02;;;;;;;2.97;1.10;;;25.70;90.60;;;;;;5090339;28;20210;-71
2022/06/07 12:23:41;;;;;;;3.33;1.13;;;26.20;90.50;;;;;;5089125;28;20263;-71
2022/06/07 12:26:25;;;;;;;1.38;1.20;;;26.50;89.50;;;;;;5089371;28;20236;-71
2022/06/07 12:28:55;;;;;;;2.50;1.20;;;26.90;86.80;;;;;;5089161;28;20200;-70
2022/06/07 12:31:33;;;;;;;1.30;0.80;;;27.20;85.90;;;;;;5091009;28;20521;-71
2022/06/07 12:34:02;;;;;;;1.60;0.88;;;27.20;83.30;;;;;;5076386;28;20221;-70
2022/06/07 12:36:31;;;;;;;1.65;0.70;;;26.60;84.30;;;;;;5089074;28;20234;-70
2022/06/07 12:39:18;;;;;;;1.73;0.90;;;26.70;84.60;;;;;;5093101;28;20202;-70
2022/06/07 12:41:55;;;;;;;3.80;0.82;;;26.60;84.70;;;;;;5094445;28;20242;-70
2022/06/07 12:44:32;;;;;;;1.65;0.90;;;26.40;84.80;;;;;;5093134;28;20209;-72
2022/06/07 12:47:01;;;;;;;3.72;1.17;;;25.90;85.80;;;;;;5079915;28;20293;-70
2022/06/07 12:49:30;;;;;;;2.92;1.48;;;25.70;86.50;;;;;;5093431;28;20212;-71
2022/06/07 12:52:07;;;;;;;2.40;1.55;;;25.60;87.50;;;;;;5094603;28;20202;-70
2022/06/07 12:54:34;;;;;;;2.25;1.27;;;25.50;88.20;;;;;;5092275;28;20210;-71
2022/06/07 12:57:12;;;;;;;1.58;0.80;;;25.40;89.10;;;;;;5094346;28;20191;-71
2022/06/07 12:59:50;;;;;;;2.97;1.02;;;25.30;89.90;;;;;;5092476;28;20205;-71
2022/06/07 13:02:20;;;;;;;2.75;1.05;;;25.50;90.20;;;;;;5092240;28;20209;-71
2022/06/07 13:04:53;;;;;;;2.28;2.00;;;25.80;89.70;;;;;;5092870;28;20175;-71
2022/06/07 13:07:20;;;;;;;1.40;1.25;;;26.30;89.80;;;;;;5093247;28;20175;-71
2022/06/07 13:09:49;;;;;;;5.28;2.85;;;26.70;88.70;;;;;;5093945;28;20281;-71
2022/06/07 13:12:20;;;;;;;1.35;1.17;;;26.90;88.10;;;;;;5092665;28;20255;-71
2022/06/07 13:14:46;;;;;;;4.13;1.63;;;26.80;87.70;;;;;;5092339;28;20206;-71
2022/06/07 13:17:28;;;;;;;1.00;0.90;;;27.00;88.40;;;;;;5092517;28;20232;-71
2022/06/07 13:19:55;;;;;;;4.38;1.23;;;27.00;87.50;;;;;;5092316;28;20218;-70